PWSweather.com
Personal Weather Stations
Station Observations
HUNTWX
Huntingfield, HalesworthGB IP19 0PY

HuntingfieldHalesworthGB IP19 0PY

Lat: 52.31225, Lon: 1.43531

Elevation: 62

Station Type: Davis Vantage Pro2

http://www.huntingfield-queens-oak.co.uk

Latest ConditionsUpdated 7:22:02 PM GMT Saturday, Jan 25, 2020
Currently Today's Max Today's Min Today's Average
Temperature 41.4°F5.2°C 43.0°F6.1°C 41.2°F5.1°C 42.1°F5.6°C
Dew Point 40.6°F4.8°C 42.3°F5.7°C 40.5°F4.7°C 41.5°F5.3°C
Winds 6.9 mph SE11.1 kmh SE 8.1 mph -13.0 kmh - - 4.6 mph 7.4 kmh
Wind Gusts 8.1 mph13.0 kmh 8.9 mph14.3 kmh - -
Humidity 97% 99% 96% 98%
Pressure 30.07 in1018.3 mb 30.17 in1021.7 mb 30.06 in1017.9 mb -
Hour Temp Dew Point Humidity Winds Wind Gusts Pressure Precip Precip Rate Daily Precip Total
07:22 PM 41.4°F5.2°C 40.6°F4.8°C 97% 6.9 mph SE11.1 kmh SE 8.1 mph13.0 kmh 30.07 in1018.3 mb - 0.00 in0.0 mm 0.00 in0.0 mm
07:17 PM 41.5°F5.3°C 40.8°F4.9°C 97% 6.9 mph SSE11.1 kmh SSE 8.1 mph13.0 kmh 30.06 in1017.9 mb - 0.00 in0.0 mm 0.00 in0.0 mm
07:12 PM 41.5°F5.3°C 40.8°F4.9°C 97% 8.1 mph S13.0 kmh S 6.9 mph11.1 kmh 30.07 in1018.3 mb - 0.00 in0.0 mm 0.00 in0.0 mm
07:07 PM 41.7°F5.4°C 41.0°F5.0°C 97% 6.9 mph S11.1 kmh S 8.1 mph13.0 kmh 30.07 in1018.3 mb - 0.00 in0.0 mm 0.00 in0.0 mm
07:02 PM 41.7°F5.4°C 41.0°F5.0°C 97% 6.9 mph SSE11.1 kmh SSE 6.0 mph9.7 kmh 30.07 in1018.3 mb - 0.00 in0.0 mm 0.00 in0.0 mm
06:57 PM 42.1°F5.6°C 41.4°F5.2°C 97% 6.9 mph SSE11.1 kmh SSE 6.0 mph9.7 kmh 30.07 in1018.3 mb - 0.00 in0.0 mm 0.00 in0.0 mm
06:52 PM 42.1°F5.6°C 41.4°F5.2°C 97% 6.9 mph SSE11.1 kmh SSE 8.9 mph14.3 kmh 30.07 in1018.3 mb - 0.00 in0.0 mm 0.00 in0.0 mm
06:47 PM 42.1°F5.6°C 41.4°F5.2°C 97% 6.0 mph S9.7 kmh S 6.0 mph9.7 kmh 30.07 in1018.3 mb - 0.00 in0.0 mm 0.00 in0.0 mm
06:42 PM 42.1°F5.6°C 41.4°F5.2°C 97% 4.9 mph SE7.9 kmh SE 6.9 mph11.1 kmh 30.07 in1018.3 mb - 0.00 in0.0 mm 0.00 in0.0 mm
06:37 PM 42.1°F5.6°C 41.4°F5.2°C 97% 4.9 mph SSE7.9 kmh SSE 4.9 mph7.9 kmh 30.07 in1018.3 mb - 0.00 in0.0 mm 0.00 in0.0 mm
06:32 PM 42.1°F5.6°C 41.4°F5.2°C 97% 4.9 mph SSE7.9 kmh SSE 4.0 mph6.4 kmh 30.07 in1018.3 mb - 0.00 in0.0 mm 0.00 in0.0 mm
06:27 PM 41.9°F5.5°C 41.2°F5.1°C 97% 4.0 mph S6.4 kmh S 4.0 mph6.4 kmh 30.07 in1018.3 mb - 0.00 in0.0 mm 0.00 in0.0 mm
06:22 PM 41.7°F5.4°C 41.0°F5.0°C 97% 2.9 mph SSE4.7 kmh SSE 4.9 mph7.9 kmh 30.07 in1018.3 mb - 0.00 in0.0 mm 0.00 in0.0 mm
06:17 PM 41.7°F5.4°C 40.6°F4.8°C 96% 2.9 mph SSE4.7 kmh SSE 2.0 mph3.2 kmh 30.07 in1018.3 mb - 0.00 in0.0 mm 0.00 in0.0 mm
06:12 PM 41.7°F5.4°C 40.6°F4.8°C 96% 2.9 mph SSE4.7 kmh SSE 2.0 mph3.2 kmh 30.07 in1018.3 mb - 0.00 in0.0 mm 0.00 in0.0 mm
06:07 PM 41.7°F5.4°C 40.6°F4.8°C 96% 2.9 mph SSE4.7 kmh SSE 2.9 mph4.7 kmh 30.07 in1018.3 mb - 0.00 in0.0 mm 0.00 in0.0 mm
06:02 PM 41.7°F5.4°C 40.6°F4.8°C 96% 2.9 mph S4.7 kmh S 4.0 mph6.4 kmh 30.07 in1018.3 mb - 0.00 in0.0 mm 0.00 in0.0 mm
05:57 PM 41.5°F5.3°C 40.5°F4.7°C 96% 2.9 mph SE4.7 kmh SE 4.0 mph6.4 kmh 30.07 in1018.3 mb - 0.00 in0.0 mm 0.00 in0.0 mm
05:52 PM 41.5°F5.3°C 40.5°F4.7°C 96% 2.9 mph SE4.7 kmh SE 4.0 mph6.4 kmh 30.07 in1018.3 mb - 0.00 in0.0 mm 0.00 in0.0 mm
05:47 PM 41.5°F5.3°C 40.5°F4.7°C 96% 2.9 mph S4.7 kmh S 2.0 mph3.2 kmh 30.07 in1018.3 mb - 0.00 in0.0 mm 0.00 in0.0 mm
05:42 PM 41.5°F5.3°C 40.5°F4.7°C 96% 2.9 mph SSE4.7 kmh SSE 2.0 mph3.2 kmh 30.08 in1018.6 mb - 0.00 in0.0 mm 0.00 in0.0 mm
05:37 PM 41.5°F5.3°C 40.5°F4.7°C 96% 2.9 mph SSE4.7 kmh SSE 2.9 mph4.7 kmh 30.07 in1018.3 mb - 0.00 in0.0 mm 0.00 in0.0 mm
05:32 PM 41.5°F5.3°C 40.5°F4.7°C 96% 4.0 mph SSE6.4 kmh SSE 4.0 mph6.4 kmh 30.08 in1018.6 mb - 0.00 in0.0 mm 0.00 in0.0 mm
05:27 PM 41.5°F5.3°C 40.5°F4.7°C 96% 2.9 mph S4.7 kmh S 4.0 mph6.4 kmh 30.08 in1018.6 mb - 0.00 in0.0 mm 0.00 in0.0 mm
05:22 PM 41.5°F5.3°C 40.5°F4.7°C 96% 2.9 mph SSE4.7 kmh SSE 0.9 mph1.4 kmh 30.07 in1018.3 mb - 0.00 in0.0 mm 0.00 in0.0 mm
05:17 PM 41.5°F5.3°C 40.5°F4.7°C 96% 4.0 mph SE6.4 kmh SE 4.0 mph6.4 kmh 30.08 in1018.6 mb - 0.00 in0.0 mm 0.00 in0.0 mm
05:12 PM 41.5°F5.3°C 40.5°F4.7°C 96% 4.0 mph SSE6.4 kmh SSE 4.0 mph6.4 kmh 30.08 in1018.6 mb - 0.00 in0.0 mm 0.00 in0.0 mm
05:07 PM 41.5°F5.3°C 40.5°F4.7°C 96% 4.0 mph SSE6.4 kmh SSE 4.0 mph6.4 kmh 30.08 in1018.6 mb - 0.00 in0.0 mm 0.00 in0.0 mm
05:02 PM 41.5°F5.3°C 40.5°F4.7°C 96% 4.9 mph S7.9 kmh S 4.0 mph6.4 kmh 30.08 in1018.6 mb - 0.00 in0.0 mm 0.00 in0.0 mm
04:57 PM 41.5°F5.3°C 40.5°F4.7°C 96% 4.9 mph S7.9 kmh S 4.9 mph7.9 kmh 30.08 in1018.6 mb - 0.00 in0.0 mm 0.00 in0.0 mm
04:52 PM 41.5°F5.3°C 40.5°F4.7°C 96% 4.9 mph SSE7.9 kmh SSE 4.0 mph6.4 kmh 30.08 in1018.6 mb - 0.00 in0.0 mm 0.00 in0.0 mm
04:47 PM 41.5°F5.3°C 40.5°F4.7°C 96% 4.9 mph SSE7.9 kmh SSE 4.0 mph6.4 kmh 30.08 in1018.6 mb - 0.00 in0.0 mm 0.00 in0.0 mm
04:42 PM 41.5°F5.3°C 40.5°F4.7°C 96% 6.0 mph S9.7 kmh S 4.9 mph7.9 kmh 30.08 in1018.6 mb - 0.00 in0.0 mm 0.00 in0.0 mm
04:37 PM 41.5°F5.3°C 40.5°F4.7°C 96% 4.9 mph SE7.9 kmh SE 6.0 mph9.7 kmh 30.08 in1018.6 mb - 0.00 in0.0 mm 0.00 in0.0 mm
04:32 PM 41.7°F5.4°C 40.6°F4.8°C 96% 6.0 mph S9.7 kmh S 4.0 mph6.4 kmh 30.08 in1018.6 mb - 0.00 in0.0 mm 0.00 in0.0 mm
04:27 PM 41.7°F5.4°C 40.6°F4.8°C 96% 6.0 mph S9.7 kmh S 4.0 mph6.4 kmh 30.07 in1018.3 mb - 0.00 in0.0 mm 0.00 in0.0 mm
04:22 PM 41.7°F5.4°C 40.6°F4.8°C 96% 6.0 mph SSE9.7 kmh SSE 4.9 mph7.9 kmh 30.07 in1018.3 mb - 0.00 in0.0 mm 0.00 in0.0 mm
04:17 PM 41.7°F5.4°C 40.6°F4.8°C 96% 6.0 mph S9.7 kmh S 4.0 mph6.4 kmh 30.07 in1018.3 mb - 0.00 in0.0 mm 0.00 in0.0 mm
04:12 PM 41.9°F5.5°C 40.8°F4.9°C 96% 4.9 mph SSE7.9 kmh SSE 6.0 mph9.7 kmh 30.08 in1018.6 mb - 0.00 in0.0 mm 0.00 in0.0 mm
04:07 PM 42.1°F5.6°C 41.0°F5.0°C 96% 4.9 mph SSE7.9 kmh SSE 4.9 mph7.9 kmh 30.07 in1018.3 mb - 0.00 in0.0 mm 0.00 in0.0 mm
04:02 PM 42.1°F5.6°C 41.0°F5.0°C 96% 4.9 mph S7.9 kmh S 6.0 mph9.7 kmh 30.07 in1018.3 mb - 0.00 in0.0 mm 0.00 in0.0 mm
03:57 PM 42.1°F5.6°C 41.0°F5.0°C 96% 4.9 mph SSE7.9 kmh SSE 6.0 mph9.7 kmh 30.07 in1018.3 mb - 0.00 in0.0 mm 0.00 in0.0 mm
03:52 PM 42.1°F5.6°C 41.0°F5.0°C 96% 6.0 mph SSW9.7 kmh SSW 6.0 mph9.7 kmh 30.07 in1018.3 mb - 0.00 in0.0 mm 0.00 in0.0 mm
03:47 PM 42.3°F5.7°C 41.2°F5.1°C 96% 6.9 mph SSW11.1 kmh SSW 4.9 mph7.9 kmh 30.07 in1018.3 mb - 0.00 in0.0 mm 0.00 in0.0 mm
03:42 PM 42.3°F5.7°C 41.2°F5.1°C 96% 6.9 mph S11.1 kmh S 8.9 mph14.3 kmh 30.07 in1018.3 mb - 0.00 in0.0 mm 0.00 in0.0 mm
03:37 PM 42.3°F5.7°C 41.2°F5.1°C 96% 6.0 mph S9.7 kmh S 6.9 mph11.1 kmh 30.07 in1018.3 mb - 0.00 in0.0 mm 0.00 in0.0 mm
03:32 PM 42.4°F5.8°C 41.4°F5.2°C 96% 4.9 mph S7.9 kmh S 6.9 mph11.1 kmh 30.08 in1018.6 mb - 0.00 in0.0 mm 0.00 in0.0 mm
03:27 PM 42.4°F5.8°C 41.4°F5.2°C 96% 4.9 mph S7.9 kmh S 4.9 mph7.9 kmh 30.08 in1018.6 mb - 0.00 in0.0 mm 0.00 in0.0 mm
03:22 PM 42.4°F5.8°C 41.4°F5.2°C 96% 6.0 mph S9.7 kmh S 4.0 mph6.4 kmh 30.07 in1018.3 mb - 0.00 in0.0 mm 0.00 in0.0 mm
03:17 PM 42.4°F5.8°C 41.4°F5.2°C 96% 6.9 mph SSW11.1 kmh SSW 6.9 mph11.1 kmh 30.08 in1018.6 mb - 0.00 in0.0 mm 0.00 in0.0 mm
03:12 PM 42.4°F5.8°C 41.4°F5.2°C 96% 6.0 mph SSW9.7 kmh SSW 8.1 mph13.0 kmh 30.08 in1018.6 mb - 0.00 in0.0 mm 0.00 in0.0 mm
03:07 PM 42.4°F5.8°C 41.4°F5.2°C 96% 6.9 mph SSW11.1 kmh SSW 6.0 mph9.7 kmh 30.08 in1018.6 mb - 0.00 in0.0 mm 0.00 in0.0 mm
03:02 PM 42.6°F5.9°C 41.5°F5.3°C 96% 6.0 mph S9.7 kmh S 6.9 mph11.1 kmh 30.08 in1018.6 mb - 0.00 in0.0 mm 0.00 in0.0 mm
02:57 PM 42.6°F5.9°C 41.5°F5.3°C 96% 6.0 mph S9.7 kmh S 8.1 mph13.0 kmh 30.08 in1018.6 mb - 0.00 in0.0 mm 0.00 in0.0 mm
02:52 PM 42.6°F5.9°C 41.9°F5.5°C 97% 6.0 mph SSW9.7 kmh SSW 6.9 mph11.1 kmh 30.08 in1018.6 mb - 0.00 in0.0 mm 0.00 in0.0 mm
02:47 PM 42.6°F5.9°C 41.9°F5.5°C 97% 6.0 mph S9.7 kmh S 4.9 mph7.9 kmh 30.08 in1018.6 mb - 0.00 in0.0 mm 0.00 in0.0 mm
02:42 PM 42.6°F5.9°C 41.5°F5.3°C 96% 6.0 mph SW9.7 kmh SW 6.0 mph9.7 kmh 30.09 in1019.0 mb - 0.00 in0.0 mm 0.00 in0.0 mm
02:37 PM 42.8°F6.0°C 41.7°F5.4°C 96% 6.0 mph S9.7 kmh S 2.9 mph4.7 kmh 30.09 in1019.0 mb - 0.00 in0.0 mm 0.00 in0.0 mm
02:32 PM 42.8°F6.0°C 42.1°F5.6°C 97% 4.9 mph S7.9 kmh S 4.9 mph7.9 kmh 30.09 in1019.0 mb - 0.00 in0.0 mm 0.00 in0.0 mm
02:27 PM 42.8°F6.0°C 42.1°F5.6°C 97% 4.9 mph SSW7.9 kmh SSW 4.0 mph6.4 kmh 30.09 in1019.0 mb - 0.00 in0.0 mm 0.00 in0.0 mm
02:22 PM 42.8°F6.0°C 42.1°F5.6°C 97% 6.0 mph SSW9.7 kmh SSW 4.9 mph7.9 kmh 30.09 in1019.0 mb - 0.00 in0.0 mm 0.00 in0.0 mm
02:17 PM 42.8°F6.0°C 42.1°F5.6°C 97% 4.9 mph SW7.9 kmh SW 4.9 mph7.9 kmh 30.09 in1019.0 mb - 0.00 in0.0 mm 0.00 in0.0 mm
02:12 PM 42.8°F6.0°C 42.1°F5.6°C 97% 6.0 mph SSW9.7 kmh SSW 6.9 mph11.1 kmh 30.09 in1019.0 mb - 0.00 in0.0 mm 0.00 in0.0 mm
02:07 PM 42.6°F5.9°C 41.9°F5.5°C 97% 6.0 mph S9.7 kmh S 4.0 mph6.4 kmh 30.09 in1019.0 mb - 0.00 in0.0 mm 0.00 in0.0 mm
02:02 PM 42.6°F5.9°C 41.9°F5.5°C 97% 6.0 mph SW9.7 kmh SW 6.0 mph9.7 kmh 30.09 in1019.0 mb - 0.00 in0.0 mm 0.00 in0.0 mm
01:57 PM 42.8°F6.0°C 42.1°F5.6°C 97% 6.0 mph S9.7 kmh S 6.9 mph11.1 kmh 30.09 in1019.0 mb - 0.00 in0.0 mm 0.00 in0.0 mm
01:52 PM 42.8°F6.0°C 42.1°F5.6°C 97% 4.9 mph SW7.9 kmh SW 8.1 mph13.0 kmh 30.10 in1019.3 mb - 0.00 in0.0 mm 0.00 in0.0 mm
01:47 PM 42.8°F6.0°C 42.1°F5.6°C 97% 6.0 mph S9.7 kmh S 4.9 mph7.9 kmh 30.10 in1019.3 mb - 0.00 in0.0 mm 0.00 in0.0 mm
01:42 PM 42.8°F6.0°C 42.1°F5.6°C 97% 4.9 mph S7.9 kmh S 4.9 mph7.9 kmh 30.10 in1019.3 mb - 0.00 in0.0 mm 0.00 in0.0 mm
01:37 PM 42.8°F6.0°C 42.1°F5.6°C 97% 4.9 mph SSW7.9 kmh SSW 4.0 mph6.4 kmh 30.10 in1019.3 mb - 0.00 in0.0 mm 0.00 in0.0 mm
01:32 PM 42.8°F6.0°C 42.1°F5.6°C 97% 4.9 mph S7.9 kmh S 4.9 mph7.9 kmh 30.11 in1019.6 mb - 0.00 in0.0 mm 0.00 in0.0 mm
01:27 PM 42.8°F6.0°C 42.1°F5.6°C 97% 6.0 mph SSW9.7 kmh SSW 4.9 mph7.9 kmh 30.11 in1019.6 mb - 0.00 in0.0 mm 0.00 in0.0 mm
01:22 PM 42.8°F6.0°C 42.1°F5.6°C 97% 4.9 mph SW7.9 kmh SW 4.9 mph7.9 kmh 30.11 in1019.6 mb - 0.00 in0.0 mm 0.00 in0.0 mm
01:17 PM 43.0°F6.1°C 42.3°F5.7°C 97% 4.0 mph S6.4 kmh S 4.9 mph7.9 kmh 30.11 in1019.6 mb - 0.00 in0.0 mm 0.00 in0.0 mm
01:12 PM 42.8°F6.0°C 42.1°F5.6°C 97% 4.9 mph SSW7.9 kmh SSW 6.9 mph11.1 kmh 30.11 in1019.6 mb - 0.00 in0.0 mm 0.00 in0.0 mm
01:07 PM 42.8°F6.0°C 42.1°F5.6°C 97% 4.9 mph S7.9 kmh S 4.9 mph7.9 kmh 30.12 in1020.0 mb - 0.00 in0.0 mm 0.00 in0.0 mm
01:02 PM 43.0°F6.1°C 42.3°F5.7°C 97% 4.9 mph S7.9 kmh S 8.1 mph13.0 kmh 30.12 in1020.0 mb - 0.00 in0.0 mm 0.00 in0.0 mm
12:57 PM 42.8°F6.0°C 42.1°F5.6°C 97% 6.0 mph SW9.7 kmh SW 4.0 mph6.4 kmh 30.12 in1020.0 mb - 0.00 in0.0 mm 0.00 in0.0 mm
12:52 PM 43.0°F6.1°C 42.3°F5.7°C 97% 4.9 mph S7.9 kmh S 4.9 mph7.9 kmh 30.12 in1020.0 mb - 0.00 in0.0 mm 0.00 in0.0 mm
12:47 PM 43.0°F6.1°C 42.3°F5.7°C 97% 4.9 mph SSW7.9 kmh SSW 4.0 mph6.4 kmh 30.12 in1020.0 mb - 0.00 in0.0 mm 0.00 in0.0 mm
12:42 PM 43.0°F6.1°C 42.3°F5.7°C 97% 4.9 mph S7.9 kmh S 4.0 mph6.4 kmh 30.12 in1020.0 mb - 0.00 in0.0 mm 0.00 in0.0 mm
12:37 PM 42.8°F6.0°C 42.1°F5.6°C 97% 4.9 mph SW7.9 kmh SW 6.0 mph9.7 kmh 30.12 in1020.0 mb - 0.00 in0.0 mm 0.00 in0.0 mm
12:32 PM 42.8°F6.0°C 42.1°F5.6°C 97% 4.9 mph S7.9 kmh S 4.9 mph7.9 kmh 30.12 in1020.0 mb - 0.00 in0.0 mm 0.00 in0.0 mm
12:27 PM 42.8°F6.0°C 42.1°F5.6°C 97% 4.9 mph S7.9 kmh S 4.9 mph7.9 kmh 30.13 in1020.3 mb - 0.00 in0.0 mm 0.00 in0.0 mm
12:22 PM 42.8°F6.0°C 42.1°F5.6°C 97% 4.9 mph SSW7.9 kmh SSW 4.0 mph6.4 kmh 30.13 in1020.3 mb - 0.00 in0.0 mm 0.00 in0.0 mm
12:17 PM 42.6°F5.9°C 41.9°F5.5°C 97% 4.9 mph SSW7.9 kmh SSW 6.0 mph9.7 kmh 30.13 in1020.3 mb - 0.00 in0.0 mm 0.00 in0.0 mm
12:12 PM 42.6°F5.9°C 41.9°F5.5°C 97% 6.0 mph SSW9.7 kmh SSW 2.9 mph4.7 kmh 30.13 in1020.3 mb - 0.00 in0.0 mm 0.00 in0.0 mm
12:07 PM 42.6°F5.9°C 41.9°F5.5°C 97% 6.0 mph S9.7 kmh S 8.9 mph14.3 kmh 30.13 in1020.3 mb - 0.00 in0.0 mm 0.00 in0.0 mm
12:02 PM 42.6°F5.9°C 41.9°F5.5°C 97% 6.0 mph SSW9.7 kmh SSW 4.9 mph7.9 kmh 30.13 in1020.3 mb - 0.00 in0.0 mm 0.00 in0.0 mm
11:57 AM 42.6°F5.9°C 41.9°F5.5°C 97% 6.0 mph S9.7 kmh S 4.9 mph7.9 kmh 30.13 in1020.3 mb - 0.00 in0.0 mm 0.00 in0.0 mm
11:52 AM 42.6°F5.9°C 41.9°F5.5°C 97% 6.0 mph S9.7 kmh S 6.9 mph11.1 kmh 30.13 in1020.3 mb - 0.00 in0.0 mm 0.00 in0.0 mm
11:47 AM 42.6°F5.9°C 41.9°F5.5°C 97% 6.9 mph SSW11.1 kmh SSW 6.9 mph11.1 kmh 30.13 in1020.3 mb - 0.00 in0.0 mm 0.00 in0.0 mm
11:42 AM 42.4°F5.8°C 41.7°F5.4°C 97% 6.0 mph SW9.7 kmh SW 6.0 mph9.7 kmh 30.13 in1020.3 mb - 0.00 in0.0 mm 0.00 in0.0 mm
11:37 AM 42.6°F5.9°C 41.9°F5.5°C 97% 6.0 mph S9.7 kmh S 4.0 mph6.4 kmh 30.14 in1020.7 mb - 0.00 in0.0 mm 0.00 in0.0 mm
11:32 AM 42.4°F5.8°C 41.7°F5.4°C 97% 6.9 mph S11.1 kmh S 6.0 mph9.7 kmh 30.14 in1020.7 mb - 0.00 in0.0 mm 0.00 in0.0 mm
11:27 AM 42.4°F5.8°C 41.7°F5.4°C 97% 6.0 mph S9.7 kmh S 6.0 mph9.7 kmh 30.14 in1020.7 mb - 0.00 in0.0 mm 0.00 in0.0 mm
11:22 AM 42.6°F5.9°C 41.9°F5.5°C 97% 6.0 mph SW9.7 kmh SW 6.0 mph9.7 kmh 30.14 in1020.7 mb - 0.00 in0.0 mm 0.00 in0.0 mm
11:17 AM 42.4°F5.8°C 41.7°F5.4°C 97% 6.0 mph S9.7 kmh S 6.0 mph9.7 kmh 30.14 in1020.7 mb - 0.00 in0.0 mm 0.00 in0.0 mm
11:12 AM 42.4°F5.8°C 41.7°F5.4°C 97% 6.0 mph S9.7 kmh S 6.0 mph9.7 kmh 30.14 in1020.7 mb - 0.00 in0.0 mm 0.00 in0.0 mm
11:07 AM 42.4°F5.8°C 41.7°F5.4°C 97% 6.9 mph SW11.1 kmh SW 6.0 mph9.7 kmh 30.14 in1020.7 mb - 0.00 in0.0 mm 0.00 in0.0 mm
11:02 AM 42.4°F5.8°C 41.7°F5.4°C 97% 6.0 mph S9.7 kmh S 4.9 mph7.9 kmh 30.14 in1020.7 mb - 0.00 in0.0 mm 0.00 in0.0 mm
10:57 AM 42.4°F5.8°C 41.9°F5.5°C 98% 6.0 mph S9.7 kmh S 8.9 mph14.3 kmh 30.14 in1020.7 mb - 0.00 in0.0 mm 0.00 in0.0 mm
10:52 AM 42.4°F5.8°C 41.9°F5.5°C 98% 6.9 mph S11.1 kmh S 6.0 mph9.7 kmh 30.15 in1021.0 mb - 0.00 in0.0 mm 0.00 in0.0 mm
10:47 AM 42.4°F5.8°C 41.9°F5.5°C 98% 6.0 mph SW9.7 kmh SW 6.0 mph9.7 kmh 30.14 in1020.7 mb - 0.00 in0.0 mm 0.00 in0.0 mm
10:42 AM 42.4°F5.8°C 41.9°F5.5°C 98% 6.0 mph SSW9.7 kmh SSW 4.0 mph6.4 kmh 30.15 in1021.0 mb - 0.00 in0.0 mm 0.00 in0.0 mm
10:37 AM 42.4°F5.8°C 41.7°F5.4°C 97% 6.0 mph S9.7 kmh S 6.9 mph11.1 kmh 30.15 in1021.0 mb - 0.00 in0.0 mm 0.00 in0.0 mm
10:32 AM 42.4°F5.8°C 41.9°F5.5°C 98% 6.0 mph SW9.7 kmh SW 6.9 mph11.1 kmh 30.15 in1021.0 mb - 0.00 in0.0 mm 0.00 in0.0 mm
10:27 AM 42.3°F5.7°C 41.7°F5.4°C 98% 6.0 mph SSW9.7 kmh SSW 4.0 mph6.4 kmh 30.15 in1021.0 mb - 0.00 in0.0 mm 0.00 in0.0 mm
10:22 AM 42.3°F5.7°C 41.7°F5.4°C 98% 6.0 mph SSW9.7 kmh SSW 6.0 mph9.7 kmh 30.14 in1020.7 mb - 0.00 in0.0 mm 0.00 in0.0 mm
10:17 AM 42.3°F5.7°C 41.7°F5.4°C 98% 6.0 mph S9.7 kmh S 2.0 mph3.2 kmh 30.14 in1020.7 mb - 0.00 in0.0 mm 0.00 in0.0 mm
10:12 AM 42.3°F5.7°C 41.7°F5.4°C 98% 4.9 mph SSW7.9 kmh SSW 8.1 mph13.0 kmh 30.14 in1020.7 mb - 0.00 in0.0 mm 0.00 in0.0 mm
10:07 AM 42.1°F5.6°C 41.5°F5.3°C 98% 4.9 mph SW7.9 kmh SW 4.9 mph7.9 kmh 30.14 in1020.7 mb - 0.00 in0.0 mm 0.00 in0.0 mm
10:02 AM 42.1°F5.6°C 41.5°F5.3°C 98% 4.9 mph SSW7.9 kmh SSW 6.0 mph9.7 kmh 30.14 in1020.7 mb - 0.00 in0.0 mm 0.00 in0.0 mm
09:57 AM 42.1°F5.6°C 41.5°F5.3°C 98% 6.0 mph SSW9.7 kmh SSW 0.9 mph1.4 kmh 30.15 in1021.0 mb - 0.00 in0.0 mm 0.00 in0.0 mm
09:52 AM 41.9°F5.5°C 41.4°F5.2°C 98% 4.9 mph S7.9 kmh S 4.0 mph6.4 kmh 30.14 in1020.7 mb - 0.00 in0.0 mm 0.00 in0.0 mm
09:47 AM 41.9°F5.5°C 41.4°F5.2°C 98% 4.9 mph SSW7.9 kmh SSW 4.9 mph7.9 kmh 30.14 in1020.7 mb - 0.00 in0.0 mm 0.00 in0.0 mm
09:42 AM 41.7°F5.4°C 41.2°F5.1°C 98% 4.9 mph SSW7.9 kmh SSW 4.9 mph7.9 kmh 30.14 in1020.7 mb - 0.00 in0.0 mm 0.00 in0.0 mm
09:37 AM 41.7°F5.4°C 41.2°F5.1°C 98% 4.9 mph SSW7.9 kmh SSW 4.0 mph6.4 kmh 30.14 in1020.7 mb - 0.00 in0.0 mm 0.00 in0.0 mm
09:32 AM 41.7°F5.4°C 41.2°F5.1°C 98% 4.9 mph SSW7.9 kmh SSW 4.0 mph6.4 kmh 30.14 in1020.7 mb - 0.00 in0.0 mm 0.00 in0.0 mm
09:27 AM 41.5°F5.3°C 41.0°F5.0°C 98% 4.9 mph SSW7.9 kmh SSW 4.0 mph6.4 kmh 30.14 in1020.7 mb - 0.00 in0.0 mm 0.00 in0.0 mm
09:22 AM 41.5°F5.3°C 41.0°F5.0°C 98% 4.9 mph SSW7.9 kmh SSW 4.9 mph7.9 kmh 30.14 in1020.7 mb - 0.00 in0.0 mm 0.00 in0.0 mm
09:17 AM 41.4°F5.2°C 40.8°F4.9°C 98% 6.0 mph SW9.7 kmh SW 2.0 mph3.2 kmh 30.14 in1020.7 mb - 0.00 in0.0 mm 0.00 in0.0 mm
09:12 AM 41.4°F5.2°C 40.8°F4.9°C 98% 6.0 mph SSW9.7 kmh SSW 6.0 mph9.7 kmh 30.14 in1020.7 mb - 0.00 in0.0 mm 0.00 in0.0 mm
09:07 AM 41.4°F5.2°C 40.8°F4.9°C 98% 6.0 mph SSW9.7 kmh SSW 4.0 mph6.4 kmh 30.14 in1020.7 mb - 0.00 in0.0 mm 0.00 in0.0 mm
09:02 AM 41.4°F5.2°C 40.8°F4.9°C 98% 6.0 mph SSW9.7 kmh SSW 4.9 mph7.9 kmh 30.14 in1020.7 mb - 0.00 in0.0 mm 0.00 in0.0 mm
08:57 AM 41.2°F5.1°C 40.6°F4.8°C 98% 6.0 mph S9.7 kmh S 6.9 mph11.1 kmh 30.14 in1020.7 mb - 0.00 in0.0 mm 0.00 in0.0 mm
08:52 AM 41.2°F5.1°C 40.6°F4.8°C 98% 6.0 mph SSW9.7 kmh SSW 6.9 mph11.1 kmh 30.14 in1020.7 mb - 0.00 in0.0 mm 0.00 in0.0 mm
08:47 AM 41.2°F5.1°C 40.6°F4.8°C 98% 6.0 mph S9.7 kmh S 6.0 mph9.7 kmh 30.14 in1020.7 mb - 0.00 in0.0 mm 0.00 in0.0 mm
08:42 AM 41.2°F5.1°C 40.6°F4.8°C 98% 4.9 mph SSW7.9 kmh SSW 6.0 mph9.7 kmh 30.14 in1020.7 mb - 0.00 in0.0 mm 0.00 in0.0 mm
08:37 AM 41.2°F5.1°C 40.6°F4.8°C 98% 4.9 mph SSW7.9 kmh SSW 4.9 mph7.9 kmh 30.14 in1020.7 mb - 0.00 in0.0 mm 0.00 in0.0 mm
08:32 AM 41.2°F5.1°C 40.6°F4.8°C 98% 6.0 mph S9.7 kmh S 4.0 mph6.4 kmh 30.14 in1020.7 mb - 0.00 in0.0 mm 0.00 in0.0 mm
08:27 AM 41.2°F5.1°C 40.6°F4.8°C 98% 4.9 mph S7.9 kmh S 6.0 mph9.7 kmh 30.14 in1020.7 mb - 0.00 in0.0 mm 0.00 in0.0 mm
08:22 AM 41.2°F5.1°C 40.6°F4.8°C 98% 4.9 mph S7.9 kmh S 4.9 mph7.9 kmh 30.14 in1020.7 mb - 0.00 in0.0 mm 0.00 in0.0 mm
08:17 AM 41.2°F5.1°C 40.6°F4.8°C 98% 4.9 mph SW7.9 kmh SW 6.9 mph11.1 kmh 30.14 in1020.7 mb - 0.00 in0.0 mm 0.00 in0.0 mm
08:12 AM 41.4°F5.2°C 40.8°F4.9°C 98% 4.0 mph S6.4 kmh S 4.0 mph6.4 kmh 30.14 in1020.7 mb - 0.00 in0.0 mm 0.00 in0.0 mm
08:07 AM 41.4°F5.2°C 40.8°F4.9°C 98% 2.9 mph SSW4.7 kmh SSW 2.0 mph3.2 kmh 30.14 in1020.7 mb - 0.00 in0.0 mm 0.00 in0.0 mm
08:02 AM 41.4°F5.2°C 40.8°F4.9°C 98% 2.9 mph SSW4.7 kmh SSW 4.0 mph6.4 kmh 30.14 in1020.7 mb - 0.00 in0.0 mm 0.00 in0.0 mm
07:57 AM 41.4°F5.2°C 40.8°F4.9°C 98% 2.9 mph SSW4.7 kmh SSW 2.0 mph3.2 kmh 30.14 in1020.7 mb - 0.00 in0.0 mm 0.00 in0.0 mm
07:52 AM 41.4°F5.2°C 40.8°F4.9°C 98% 4.0 mph SSW6.4 kmh SSW 4.0 mph6.4 kmh 30.14 in1020.7 mb - 0.00 in0.0 mm 0.00 in0.0 mm
07:47 AM 41.4°F5.2°C 40.8°F4.9°C 98% 4.9 mph SSW7.9 kmh SSW 2.9 mph4.7 kmh 30.14 in1020.7 mb - 0.00 in0.0 mm 0.00 in0.0 mm
07:42 AM 41.4°F5.2°C 40.8°F4.9°C 98% 4.9 mph S7.9 kmh S 4.9 mph7.9 kmh 30.13 in1020.3 mb - 0.00 in0.0 mm 0.00 in0.0 mm
07:37 AM 41.5°F5.3°C 41.0°F5.0°C 98% 4.0 mph SW6.4 kmh SW 6.0 mph9.7 kmh 30.13 in1020.3 mb - 0.00 in0.0 mm 0.00 in0.0 mm
07:32 AM 41.5°F5.3°C 41.0°F5.0°C 98% 2.9 mph SSW4.7 kmh SSW 4.0 mph6.4 kmh 30.13 in1020.3 mb - 0.00 in0.0 mm 0.00 in0.0 mm
07:27 AM 41.5°F5.3°C 41.0°F5.0°C 98% 2.9 mph SW4.7 kmh SW 2.9 mph4.7 kmh 30.13 in1020.3 mb - 0.00 in0.0 mm 0.00 in0.0 mm
07:22 AM 41.5°F5.3°C 41.0°F5.0°C 98% 2.9 mph SW4.7 kmh SW 4.0 mph6.4 kmh 30.13 in1020.3 mb - 0.00 in0.0 mm 0.00 in0.0 mm
07:17 AM 41.5°F5.3°C 41.0°F5.0°C 98% 4.0 mph SSW6.4 kmh SSW 2.0 mph3.2 kmh 30.13 in1020.3 mb - 0.00 in0.0 mm 0.00 in0.0 mm
07:12 AM 41.5°F5.3°C 41.0°F5.0°C 98% 4.0 mph S6.4 kmh S 2.0 mph3.2 kmh 30.13 in1020.3 mb - 0.00 in0.0 mm 0.00 in0.0 mm
07:07 AM 41.5°F5.3°C 41.0°F5.0°C 98% 4.0 mph SSW6.4 kmh SSW 4.0 mph6.4 kmh 30.13 in1020.3 mb - 0.00 in0.0 mm 0.00 in0.0 mm
07:02 AM 41.5°F5.3°C 41.0°F5.0°C 98% 4.0 mph S6.4 kmh S 2.9 mph4.7 kmh 30.13 in1020.3 mb - 0.00 in0.0 mm 0.00 in0.0 mm
06:57 AM 41.7°F5.4°C 41.2°F5.1°C 98% 4.0 mph SSW6.4 kmh SSW 4.0 mph6.4 kmh 30.13 in1020.3 mb - 0.00 in0.0 mm 0.00 in0.0 mm
06:52 AM 41.7°F5.4°C 41.2°F5.1°C 98% 4.0 mph SSW6.4 kmh SSW 6.0 mph9.7 kmh 30.13 in1020.3 mb - 0.00 in0.0 mm 0.00 in0.0 mm
06:47 AM 41.7°F5.4°C 41.2°F5.1°C 98% 4.9 mph SSW7.9 kmh SSW 2.0 mph3.2 kmh 30.13 in1020.3 mb - 0.00 in0.0 mm 0.00 in0.0 mm
06:42 AM 41.7°F5.4°C 41.5°F5.3°C 99% 4.0 mph S6.4 kmh S 6.0 mph9.7 kmh 30.13 in1020.3 mb - 0.00 in0.0 mm 0.00 in0.0 mm
06:37 AM 41.7°F5.4°C 41.5°F5.3°C 99% 4.0 mph SSW6.4 kmh SSW 4.9 mph7.9 kmh 30.13 in1020.3 mb - 0.00 in0.0 mm 0.00 in0.0 mm
06:32 AM 41.7°F5.4°C 41.5°F5.3°C 99% 4.9 mph S7.9 kmh S 4.9 mph7.9 kmh 30.13 in1020.3 mb - 0.00 in0.0 mm 0.00 in0.0 mm
06:27 AM 41.7°F5.4°C 41.5°F5.3°C 99% 4.9 mph SSW7.9 kmh SSW 6.9 mph11.1 kmh 30.13 in1020.3 mb - 0.00 in0.0 mm 0.00 in0.0 mm
06:22 AM 41.7°F5.4°C 41.5°F5.3°C 99% 4.9 mph SSW7.9 kmh SSW 4.0 mph6.4 kmh 30.13 in1020.3 mb - 0.00 in0.0 mm 0.00 in0.0 mm
06:17 AM 41.9°F5.5°C 41.7°F5.4°C 99% 4.9 mph SW7.9 kmh SW 4.0 mph6.4 kmh 30.13 in1020.3 mb - 0.00 in0.0 mm 0.00 in0.0 mm
06:12 AM 41.9°F5.5°C 41.7°F5.4°C 99% 4.0 mph SSW6.4 kmh SSW 4.0 mph6.4 kmh 30.13 in1020.3 mb - 0.00 in0.0 mm 0.00 in0.0 mm
06:07 AM 41.9°F5.5°C 41.7°F5.4°C 99% 4.0 mph S6.4 kmh S 6.0 mph9.7 kmh 30.13 in1020.3 mb - 0.00 in0.0 mm 0.00 in0.0 mm
06:02 AM 41.9°F5.5°C 41.7°F5.4°C 99% 4.0 mph SSW6.4 kmh SSW 4.9 mph7.9 kmh 30.13 in1020.3 mb - 0.00 in0.0 mm 0.00 in0.0 mm
05:57 AM 41.9°F5.5°C 41.7°F5.4°C 99% 4.0 mph SW6.4 kmh SW 4.9 mph7.9 kmh 30.13 in1020.3 mb - 0.00 in0.0 mm 0.00 in0.0 mm
05:52 AM 41.9°F5.5°C 41.7°F5.4°C 99% 4.0 mph SW6.4 kmh SW 6.0 mph9.7 kmh 30.13 in1020.3 mb - 0.00 in0.0 mm 0.00 in0.0 mm
05:47 AM 41.9°F5.5°C 41.7°F5.4°C 99% 4.0 mph SSW6.4 kmh SSW 4.9 mph7.9 kmh 30.13 in1020.3 mb - 0.00 in0.0 mm 0.00 in0.0 mm
05:42 AM 41.9°F5.5°C 41.7°F5.4°C 99% 2.9 mph SSW4.7 kmh SSW 2.0 mph3.2 kmh 30.13 in1020.3 mb - 0.00 in0.0 mm 0.00 in0.0 mm
05:37 AM 41.9°F5.5°C 41.7°F5.4°C 99% 2.9 mph S4.7 kmh S 4.9 mph7.9 kmh 30.13 in1020.3 mb - 0.00 in0.0 mm 0.00 in0.0 mm
05:32 AM 41.9°F5.5°C 41.7°F5.4°C 99% 2.0 mph SW3.2 kmh SW 4.0 mph6.4 kmh 30.13 in1020.3 mb - 0.00 in0.0 mm 0.00 in0.0 mm
05:27 AM 41.9°F5.5°C 41.7°F5.4°C 99% 2.9 mph SSW4.7 kmh SSW 4.0 mph6.4 kmh 30.13 in1020.3 mb - 0.00 in0.0 mm 0.00 in0.0 mm
05:22 AM 41.9°F5.5°C 41.7°F5.4°C 99% 4.0 mph SW6.4 kmh SW 0.9 mph1.4 kmh 30.12 in1020.0 mb - 0.00 in0.0 mm 0.00 in0.0 mm
05:17 AM 41.9°F5.5°C 41.7°F5.4°C 99% 4.0 mph SSW6.4 kmh SSW 4.0 mph6.4 kmh 30.13 in1020.3 mb - 0.00 in0.0 mm 0.00 in0.0 mm
05:12 AM 41.9°F5.5°C 41.7°F5.4°C 99% 2.9 mph S4.7 kmh S 2.0 mph3.2 kmh 30.13 in1020.3 mb - 0.00 in0.0 mm 0.00 in0.0 mm
05:07 AM 41.9°F5.5°C 41.7°F5.4°C 99% 2.0 mph SSW3.2 kmh SSW 4.0 mph6.4 kmh 30.13 in1020.3 mb - 0.00 in0.0 mm 0.00 in0.0 mm
05:02 AM 41.9°F5.5°C 41.7°F5.4°C 99% 2.0 mph S3.2 kmh S 4.0 mph6.4 kmh 30.13 in1020.3 mb - 0.00 in0.0 mm 0.00 in0.0 mm
04:57 AM 41.9°F5.5°C 41.7°F5.4°C 99% 2.0 mph SW3.2 kmh SW 2.0 mph3.2 kmh 30.13 in1020.3 mb - 0.00 in0.0 mm 0.00 in0.0 mm
04:52 AM 41.9°F5.5°C 41.7°F5.4°C 99% 2.0 mph SW3.2 kmh SW 4.0 mph6.4 kmh 30.13 in1020.3 mb - 0.00 in0.0 mm 0.00 in0.0 mm
04:47 AM 41.9°F5.5°C 41.7°F5.4°C 99% 2.0 mph SSW3.2 kmh SSW 2.0 mph3.2 kmh 30.13 in1020.3 mb - 0.00 in0.0 mm 0.00 in0.0 mm
04:42 AM 41.9°F5.5°C 41.7°F5.4°C 99% 2.9 mph SW4.7 kmh SW 2.0 mph3.2 kmh 30.13 in1020.3 mb - 0.00 in0.0 mm 0.00 in0.0 mm
04:37 AM 41.9°F5.5°C 41.7°F5.4°C 99% 2.9 mph SW4.7 kmh SW 2.9 mph4.7 kmh 30.13 in1020.3 mb - 0.00 in0.0 mm 0.00 in0.0 mm
04:32 AM 41.9°F5.5°C 41.7°F5.4°C 99% 2.9 mph S4.7 kmh S 4.0 mph6.4 kmh 30.13 in1020.3 mb - 0.00 in0.0 mm 0.00 in0.0 mm
04:27 AM 42.1°F5.6°C 41.9°F5.5°C 99% 4.0 mph SSW6.4 kmh SSW 0.9 mph1.4 kmh 30.13 in1020.3 mb - 0.00 in0.0 mm 0.00 in0.0 mm
04:22 AM 42.1°F5.6°C 41.9°F5.5°C 99% 2.9 mph SSW4.7 kmh SSW 2.0 mph3.2 kmh 30.13 in1020.3 mb - 0.00 in0.0 mm 0.00 in0.0 mm
04:17 AM 42.1°F5.6°C 41.9°F5.5°C 99% 2.9 mph SW4.7 kmh SW 4.0 mph6.4 kmh 30.13 in1020.3 mb - 0.00 in0.0 mm 0.00 in0.0 mm
04:12 AM 42.1°F5.6°C 41.9°F5.5°C 99% 2.9 mph SW4.7 kmh SW 4.0 mph6.4 kmh 30.13 in1020.3 mb - 0.00 in0.0 mm 0.00 in0.0 mm
04:07 AM 42.1°F5.6°C 41.9°F5.5°C 99% 4.0 mph SW6.4 kmh SW 4.0 mph6.4 kmh 30.13 in1020.3 mb - 0.00 in0.0 mm 0.00 in0.0 mm
04:02 AM 42.1°F5.6°C 41.9°F5.5°C 99% 2.9 mph SSW4.7 kmh SSW 2.9 mph4.7 kmh 30.13 in1020.3 mb - 0.00 in0.0 mm 0.00 in0.0 mm
03:57 AM 42.1°F5.6°C 41.9°F5.5°C 99% 2.9 mph S4.7 kmh S 2.0 mph3.2 kmh 30.13 in1020.3 mb - 0.00 in0.0 mm 0.00 in0.0 mm
03:52 AM 42.1°F5.6°C 41.9°F5.5°C 99% 2.9 mph SSW4.7 kmh SSW 0.9 mph1.4 kmh 30.13 in1020.3 mb - 0.00 in0.0 mm 0.00 in0.0 mm
03:47 AM 42.1°F5.6°C 41.9°F5.5°C 99% 2.9 mph SW4.7 kmh SW 2.0 mph3.2 kmh 30.13 in1020.3 mb - 0.00 in0.0 mm 0.00 in0.0 mm
03:42 AM 42.1°F5.6°C 41.9°F5.5°C 99% 2.9 mph SW4.7 kmh SW 2.0 mph3.2 kmh 30.13 in1020.3 mb - 0.00 in0.0 mm 0.00 in0.0 mm
03:37 AM 42.1°F5.6°C 41.9°F5.5°C 99% 4.0 mph SSW6.4 kmh SSW 2.9 mph4.7 kmh 30.13 in1020.3 mb - 0.00 in0.0 mm 0.00 in0.0 mm
03:32 AM 42.1°F5.6°C 41.9°F5.5°C 99% 4.0 mph S6.4 kmh S 4.9 mph7.9 kmh 30.13 in1020.3 mb - 0.00 in0.0 mm 0.00 in0.0 mm
03:27 AM 42.1°F5.6°C 41.9°F5.5°C 99% 4.0 mph S6.4 kmh S 4.0 mph6.4 kmh 30.13 in1020.3 mb - 0.00 in0.0 mm 0.00 in0.0 mm
03:22 AM 42.1°F5.6°C 41.9°F5.5°C 99% 4.0 mph S6.4 kmh S 4.9 mph7.9 kmh 30.14 in1020.7 mb - 0.00 in0.0 mm 0.00 in0.0 mm
03:17 AM 42.1°F5.6°C 41.9°F5.5°C 99% 4.0 mph S6.4 kmh S 4.9 mph7.9 kmh 30.14 in1020.7 mb - 0.00 in0.0 mm 0.00 in0.0 mm
03:12 AM 42.1°F5.6°C 41.9°F5.5°C 99% 4.0 mph SSW6.4 kmh SSW 4.9 mph7.9 kmh 30.14 in1020.7 mb - 0.00 in0.0 mm 0.00 in0.0 mm
03:07 AM 42.1°F5.6°C 41.9°F5.5°C 99% 2.9 mph S4.7 kmh S 4.9 mph7.9 kmh 30.14 in1020.7 mb - 0.00 in0.0 mm 0.00 in0.0 mm
02:57 AM 42.1°F5.6°C 41.9°F5.5°C 99% 2.0 mph SW3.2 kmh SW 0.9 mph1.4 kmh 30.14 in1020.7 mb - 0.00 in0.0 mm 0.00 in0.0 mm
02:52 AM 42.1°F5.6°C 41.9°F5.5°C 99% 2.0 mph SSW3.2 kmh SSW 2.0 mph3.2 kmh 30.14 in1020.7 mb - 0.00 in0.0 mm 0.00 in0.0 mm
02:47 AM 42.1°F5.6°C 41.9°F5.5°C 99% 2.9 mph SSW4.7 kmh SSW 2.0 mph3.2 kmh 30.15 in1021.0 mb - 0.00 in0.0 mm 0.00 in0.0 mm
02:42 AM 42.3°F5.7°C 42.1°F5.6°C 99% 4.0 mph SSW6.4 kmh SSW 2.0 mph3.2 kmh 30.15 in1021.0 mb - 0.00 in0.0 mm 0.00 in0.0 mm
02:37 AM 42.1°F5.6°C 41.9°F5.5°C 99% 4.0 mph SSW6.4 kmh SSW 2.9 mph4.7 kmh 30.15 in1021.0 mb - 0.00 in0.0 mm 0.00 in0.0 mm
02:32 AM 42.1°F5.6°C 41.9°F5.5°C 99% 4.0 mph S6.4 kmh S 4.0 mph6.4 kmh 30.15 in1021.0 mb - 0.00 in0.0 mm 0.00 in0.0 mm
02:27 AM 42.1°F5.6°C 41.9°F5.5°C 99% 2.9 mph S4.7 kmh S 4.9 mph7.9 kmh 30.15 in1021.0 mb - 0.00 in0.0 mm 0.00 in0.0 mm
02:22 AM 42.3°F5.7°C 42.1°F5.6°C 99% 4.0 mph SSW6.4 kmh SSW 4.9 mph7.9 kmh 30.15 in1021.0 mb - 0.00 in0.0 mm 0.00 in0.0 mm
02:17 AM 42.1°F5.6°C 41.9°F5.5°C 99% 2.9 mph S4.7 kmh S 2.0 mph3.2 kmh 30.15 in1021.0 mb - 0.00 in0.0 mm 0.00 in0.0 mm
02:12 AM 42.1°F5.6°C 41.9°F5.5°C 99% 2.0 mph S3.2 kmh S 2.0 mph3.2 kmh 30.15 in1021.0 mb - 0.00 in0.0 mm 0.00 in0.0 mm
02:07 AM 42.3°F5.7°C 42.1°F5.6°C 99% 2.0 mph SSW3.2 kmh SSW 2.0 mph3.2 kmh 30.15 in1021.0 mb - 0.00 in0.0 mm 0.00 in0.0 mm
02:02 AM 42.3°F5.7°C 42.1°F5.6°C 99% 2.0 mph SW3.2 kmh SW 2.0 mph3.2 kmh 30.16 in1021.3 mb - 0.00 in0.0 mm 0.00 in0.0 mm
01:57 AM 42.3°F5.7°C 42.1°F5.6°C 99% 2.9 mph SSW4.7 kmh SSW 2.0 mph3.2 kmh 30.16 in1021.3 mb - 0.00 in0.0 mm 0.00 in0.0 mm
01:52 AM 42.3°F5.7°C 42.1°F5.6°C 99% 2.9 mph SSW4.7 kmh SSW 2.0 mph3.2 kmh 30.16 in1021.3 mb - 0.00 in0.0 mm 0.00 in0.0 mm
01:47 AM 42.3°F5.7°C 42.1°F5.6°C 99% 2.9 mph SW4.7 kmh SW 2.9 mph4.7 kmh 30.16 in1021.3 mb - 0.00 in0.0 mm 0.00 in0.0 mm
01:42 AM 42.3°F5.7°C 42.1°F5.6°C 99% 2.9 mph SW4.7 kmh SW 2.0 mph3.2 kmh 30.16 in1021.3 mb - 0.00 in0.0 mm 0.00 in0.0 mm
01:37 AM 42.3°F5.7°C 42.1°F5.6°C 99% 2.9 mph S4.7 kmh S 6.0 mph9.7 kmh 30.16 in1021.3 mb - 0.00 in0.0 mm 0.00 in0.0 mm
01:32 AM 42.3°F5.7°C 42.1°F5.6°C 99% 2.9 mph SSW4.7 kmh SSW 2.0 mph3.2 kmh 30.16 in1021.3 mb - 0.00 in0.0 mm 0.00 in0.0 mm
01:27 AM 42.3°F5.7°C 42.1°F5.6°C 99% 4.0 mph SSW6.4 kmh SSW 2.9 mph4.7 kmh 30.16 in1021.3 mb - 0.00 in0.0 mm 0.00 in0.0 mm
01:22 AM 42.3°F5.7°C 42.1°F5.6°C 99% 4.0 mph SSW6.4 kmh SSW 4.0 mph6.4 kmh 30.16 in1021.3 mb - 0.00 in0.0 mm 0.00 in0.0 mm
01:17 AM 42.3°F5.7°C 42.1°F5.6°C 99% 4.0 mph SSW6.4 kmh SSW 4.9 mph7.9 kmh 30.16 in1021.3 mb - 0.00 in0.0 mm 0.00 in0.0 mm
01:12 AM 42.3°F5.7°C 42.1°F5.6°C 99% 4.0 mph SSW6.4 kmh SSW 6.0 mph9.7 kmh 30.16 in1021.3 mb - 0.00 in0.0 mm 0.00 in0.0 mm
01:07 AM 42.3°F5.7°C 42.1°F5.6°C 99% 4.9 mph S7.9 kmh S 4.0 mph6.4 kmh 30.16 in1021.3 mb - 0.00 in0.0 mm 0.00 in0.0 mm
01:02 AM 42.3°F5.7°C 42.1°F5.6°C 99% 4.0 mph SSW6.4 kmh SSW 4.0 mph6.4 kmh 30.16 in1021.3 mb - 0.00 in0.0 mm 0.00 in0.0 mm
12:57 AM 42.1°F5.6°C 41.9°F5.5°C 99% 4.0 mph SW6.4 kmh SW 4.0 mph6.4 kmh 30.16 in1021.3 mb - 0.00 in0.0 mm 0.00 in0.0 mm
12:52 AM 42.1°F5.6°C 41.9°F5.5°C 99% 2.9 mph SSW4.7 kmh SSW 4.9 mph7.9 kmh 30.16 in1021.3 mb - 0.00 in0.0 mm 0.00 in0.0 mm
12:47 AM 42.1°F5.6°C 41.9°F5.5°C 99% 4.0 mph SSW6.4 kmh SSW 2.0 mph3.2 kmh 30.16 in1021.3 mb - 0.00 in0.0 mm 0.00 in0.0 mm
12:42 AM 42.1°F5.6°C 41.9°F5.5°C 99% 2.9 mph SW4.7 kmh SW 4.9 mph7.9 kmh 30.17 in1021.7 mb - 0.00 in0.0 mm 0.00 in0.0 mm
12:37 AM 42.1°F5.6°C 41.9°F5.5°C 99% 4.0 mph SW6.4 kmh SW 0.9 mph1.4 kmh 30.17 in1021.7 mb - 0.00 in0.0 mm 0.00 in0.0 mm
12:32 AM 42.1°F5.6°C 41.9°F5.5°C 99% 4.9 mph SSW7.9 kmh SSW 4.9 mph7.9 kmh 30.17 in1021.7 mb - 0.00 in0.0 mm 0.00 in0.0 mm
12:27 AM 42.1°F5.6°C 41.9°F5.5°C 99% 4.0 mph SSW6.4 kmh SSW 4.9 mph7.9 kmh 30.17 in1021.7 mb - 0.00 in0.0 mm 0.00 in0.0 mm
12:22 AM 42.1°F5.6°C 41.9°F5.5°C 99% 4.0 mph S6.4 kmh S 4.9 mph7.9 kmh 30.17 in1021.7 mb - 0.00 in0.0 mm 0.00 in0.0 mm
12:17 AM 42.1°F5.6°C 41.9°F5.5°C 99% 4.0 mph S6.4 kmh S 2.0 mph3.2 kmh 30.17 in1021.7 mb - 0.00 in0.0 mm 0.00 in0.0 mm
12:12 AM 42.1°F5.6°C 41.9°F5.5°C 99% 4.0 mph S6.4 kmh S 4.0 mph6.4 kmh 30.17 in1021.7 mb - 0.00 in0.0 mm 0.00 in0.0 mm
12:07 AM 42.1°F5.6°C 41.9°F5.5°C 99% 4.0 mph SSW6.4 kmh SSW 6.0 mph9.7 kmh 30.17 in1021.7 mb - 0.00 in0.0 mm 0.00 in0.0 mm
12:02 AM 42.1°F5.6°C 41.9°F5.5°C 99% 4.9 mph S7.9 kmh S 4.9 mph7.9 kmh 30.17 in1021.7 mb - 0.00 in0.0 mm 0.01 in0.3 mm